Aérodrome :







RETROUVEZ-NOUS SUR...

 
LOGIN :

S'inscrire | Disclaimer

   EN    FR    IT 

 









Légende :    VFR   VFR Marginal   IFR   IFR Intensif   IFR Très Intensif
Visi : 
Plafond : 
>= 8 km
>= 3000ft
5 à 8 km
1000 à 3000 ft
1500m à 5 km
500 à 1000 ft
800 à 1500m
200 à 500 ft
< 800m
< 200 ft
Symboles :   Orages  Brouillard  Fortes neiges  Fortes précipitations  Vent > 20 kt






- Altitude de l'aérodrome : 72 ft
- Code IATA : YDF


CYDF - Deer Lake

DERNIER METAR :
  • 190100Z 23003KT 200V280 15SM BKN032 M13/M17 A3004 RMK SC7 INTMT -SN SLP175

METARs EXPIRÉS :
  • 190000Z 21010G16KT 15SM OVC032 M13/M17 A3002 RMK SC8 INTMT -SN SLP171
  • 182300Z 21013KT 10SM -SN DRSN BKN026 M14/M18 A3002 RMK SC7 /S01/ SLP170
  • 182200Z 22010KT 10SM -SN DRSN BKN033 M15/M19 A3001 RMK SC7 SLP167

TAF TAF CYDF
Valide du 18 à 20h jusqu'au 19 à 08h UTC


181938Z 1820/1908 24010G20KT 5SM -SHSN BKN015 BKN030
TEMPO 1820/1903 P6SM -SN FEW015 BKN030
FM190300 23007KT P6SM BKN025
TEMPO 1903/1908 5SM -SN BKN020 RMK NXT FCST BY 190200Z



MET'MAP, la Météo Aéronautique d'un coup d'oeil ! - Copyright ORBIFLY Décembre 2007 - Disclaimer

ORBIFLY MET'MAP TEAM :

Programmation & Développement : Alexandra Zaïnal
Sur une idée originale de : Baudouin d'Aumeries
Assistance à la programmation : Marc-Olivier Méhu
Soutien technique & logistique : Manuel Goepfert

Contact : metmap@orbifly.com




SOURCES & CREDITS :

   NOAA